Terminal Aerodrome Forecast
Issued by NWS Bismarck, ND

Home | Current Version | Previous Version | Text Only | Print | Product List | Glossary On
Versions: 1 2 3 4 5 6 7 8 9 10 11 12 13 14
479
FTUS43 KBIS 240529
TAFISN
TAF
KISN 240529Z 2406/2506 09010KT P6SM VCSH OVC006
     FM240900 08005KT 3SM -SN BR OVC005
     FM241200 06005KT 1 1/2SM BR VCSH OVC003
     FM241400 04007KT P6SM VCSH OVC008
     FM241600 03008KT P6SM OVC010=

USA.gov is the U.S. government's official web portal to all federal, state and local government web resources and services.